sensor_id;sensor_type;location;lat;lon;timestamp;pressure;altitude;pressure_sealevel;temperature;humidity
78373;BME280;67656;52.074;4.758;2023-04-19T00:03:05;102826.91;;;6.51;100.00
78373;BME280;67656;52.074;4.758;2023-04-19T00:08:06;102824.66;;;6.68;100.00
78373;BME280;67656;52.074;4.758;2023-04-19T00:13:06;102822.34;;;6.85;100.00
78373;BME280;67656;52.074;4.758;2023-04-19T00:18:07;102810.22;;;6.91;100.00
78373;BME280;67656;52.074;4.758;2023-04-19T00:23:07;102814.72;;;6.97;100.00
78373;BME280;67656;52.074;4.758;2023-04-19T00:28:07;102812.03;;;6.96;100.00
78373;BME280;67656;52.074;4.758;2023-04-19T00:33:08;102812.25;;;7.06;100.00
78373;BME280;67656;52.074;4.758;2023-04-19T00:38:08;102809.91;;;7.23;100.00
78373;BME280;67656;52.074;4.758;2023-04-19T00:43:09;102807.69;;;7.47;100.00
78373;BME280;67656;52.074;4.758;2023-04-19T00:48:11;102811.75;;;7.28;100.00
78373;BME280;67656;52.074;4.758;2023-04-19T00:53:12;102808.81;;;7.11;100.00
78373;BME280;67656;52.074;4.758;2023-04-19T00:58:12;102797.13;;;6.93;100.00
78373;BME280;67656;52.074;4.758;2023-04-19T01:03:13;102809.38;;;6.94;100.00
78373;BME280;67656;52.074;4.758;2023-04-19T01:08:13;102798.03;;;6.95;100.00
78373;BME280;67656;52.074;4.758;2023-04-19T01:13:14;102800.66;;;6.95;100.00
78373;BME280;67656;52.074;4.758;2023-04-19T01:18:14;102795.41;;;6.95;100.00
78373;BME280;67656;52.074;4.758;2023-04-19T01:23:16;102799.81;;;6.96;100.00
78373;BME280;67656;52.074;4.758;2023-04-19T01:28:16;102797.00;;;6.87;100.00
78373;BME280;67656;52.074;4.758;2023-04-19T01:33:17;102808.25;;;6.80;100.00
78373;BME280;67656;52.074;4.758;2023-04-19T01:38:17;102796.81;;;6.76;100.00
78373;BME280;67656;52.074;4.758;2023-04-19T01:43:18;102800.03;;;6.63;100.00
78373;BME280;67656;52.074;4.758;2023-04-19T01:48:18;102796.47;;;6.59;100.00
78373;BME280;67656;52.074;4.758;2023-04-19T01:53:18;102797.41;;;6.61;100.00
78373;BME280;67656;52.074;4.758;2023-04-19T01:58:19;102800.81;;;6.57;100.00
78373;BME280;67656;52.074;4.758;2023-04-19T02:03:20;102798.25;;;6.60;100.00
78373;BME280;67656;52.074;4.758;2023-04-19T02:08:20;102794.13;;;6.74;100.00
78373;BME280;67656;52.074;4.758;2023-04-19T02:13:21;102797.63;;;6.73;100.00
78373;BME280;67656;52.074;4.758;2023-04-19T02:18:21;102783.47;;;6.65;100.00
78373;BME280;67656;52.074;4.758;2023-04-19T02:23:21;102797.63;;;6.73;100.00
78373;BME280;67656;52.074;4.758;2023-04-19T02:28:22;102796.97;;;6.84;100.00
78373;BME280;67656;52.074;4.758;2023-04-19T02:33:25;102788.31;;;6.91;100.00
78373;BME280;67656;52.074;4.758;2023-04-19T02:38:26;102785.81;;;6.97;100.00
78373;BME280;67656;52.074;4.758;2023-04-19T02:43:27;102787.69;;;7.04;100.00
78373;BME280;67656;52.074;4.758;2023-04-19T02:48:27;102800.09;;;7.12;100.00
78373;BME280;67656;52.074;4.758;2023-04-19T02:53:28;102796.78;;;7.22;100.00
78373;BME280;67656;52.074;4.758;2023-04-19T02:58:28;102798.63;;;7.28;100.00
78373;BME280;67656;52.074;4.758;2023-04-19T03:03:37;102800.34;;;7.27;100.00
78373;BME280;67656;52.074;4.758;2023-04-19T03:08:37;102804.03;;;7.38;100.00
78373;BME280;67656;52.074;4.758;2023-04-19T03:13:39;102797.97;;;7.43;100.00
78373;BME280;67656;52.074;4.758;2023-04-19T03:18:39;102793.72;;;7.51;100.00
78373;BME280;67656;52.074;4.758;2023-04-19T03:23:40;102783.38;;;7.60;100.00
78373;BME280;67656;52.074;4.758;2023-04-19T03:28:41;102787.00;;;7.68;100.00
78373;BME280;67656;52.074;4.758;2023-04-19T03:33:50;102778.34;;;7.76;100.00
78373;BME280;67656;52.074;4.758;2023-04-19T03:38:52;102777.47;;;7.75;100.00
78373;BME280;67656;52.074;4.758;2023-04-19T03:43:55;102774.84;;;7.74;100.00
78373;BME280;67656;52.074;4.758;2023-04-19T03:48:57;102779.22;;;7.75;100.00
78373;BME280;67656;52.074;4.758;2023-04-19T03:53:59;102778.44;;;7.82;100.00
78373;BME280;67656;52.074;4.758;2023-04-19T03:59:02;102776.72;;;7.84;100.00
78373;BME280;67656;52.074;4.758;2023-04-19T04:04:09;102768.00;;;7.88;100.00
78373;BME280;67656;52.074;4.758;2023-04-19T04:09:10;102775.03;;;7.89;100.00
78373;BME280;67656;52.074;4.758;2023-04-19T04:14:10;102774.16;;;7.89;100.00
78373;BME280;67656;52.074;4.758;2023-04-19T04:19:12;102785.69;;;7.98;100.00
78373;BME280;67656;52.074;4.758;2023-04-19T04:24:15;102780.47;;;8.02;100.00
78373;BME280;67656;52.074;4.758;2023-04-19T04:29:27;102777.78;;;7.97;100.00
78373;BME280;67656;52.074;4.758;2023-04-19T04:34:30;102781.38;;;8.02;100.00
78373;BME280;67656;52.074;4.758;2023-04-19T04:39:39;102779.53;;;7.96;100.00
78373;BME280;67656;52.074;4.758;2023-04-19T04:44:40;102783.09;;;8.02;100.00
78373;BME280;67656;52.074;4.758;2023-04-19T04:49:42;102790.06;;;7.96;100.00
78373;BME280;67656;52.074;4.758;2023-04-19T04:54:43;102788.22;;;7.92;100.00
78373;BME280;67656;52.074;4.758;2023-04-19T04:59:53;102791.66;;;7.88;100.00
78373;BME280;67656;52.074;4.758;2023-04-19T05:04:55;102787.97;;;7.75;100.00
78373;BME280;67656;52.074;4.758;2023-04-19T05:09:55;102797.44;;;7.62;100.00
78373;BME280;67656;52.074;4.758;2023-04-19T05:15:02;102792.13;;;7.59;100.00
78373;BME280;67656;52.074;4.758;2023-04-19T05:20:03;102795.50;;;7.52;100.00
78373;BME280;67656;52.074;4.758;2023-04-19T05:25:05;102803.22;;;7.43;100.00
78373;BME280;67656;52.074;4.758;2023-04-19T05:30:06;102797.84;;;7.33;100.00
78373;BME280;67656;52.074;4.758;2023-04-19T05:35:08;102813.66;;;7.36;100.00
78373;BME280;67656;52.074;4.758;2023-04-19T05:40:09;102807.44;;;7.31;100.00
78373;BME280;67656;52.074;4.758;2023-04-19T05:45:11;102814.53;;;7.38;100.00
78373;BME280;67656;52.074;4.758;2023-04-19T05:50:12;102818.97;;;7.41;100.00
78373;BME280;67656;52.074;4.758;2023-04-19T05:55:19;102818.13;;;7.42;100.00
78373;BME280;67656;52.074;4.758;2023-04-19T06:00:20;102810.25;;;7.44;100.00
78373;BME280;67656;52.074;4.758;2023-04-19T06:05:30;102809.66;;;7.60;100.00
78373;BME280;67656;52.074;4.758;2023-04-19T06:10:30;102802.09;;;7.82;100.00
78373;BME280;67656;52.074;4.758;2023-04-19T06:15:31;102812.63;;;7.83;100.00
78373;BME280;67656;52.074;4.758;2023-04-19T06:20:31;102808.38;;;7.92;100.00
78373;BME280;67656;52.074;4.758;2023-04-19T06:25:32;102814.81;;;8.12;100.00
78373;BME280;67656;52.074;4.758;2023-04-19T06:30:32;102807.16;;;8.29;100.00
78373;BME280;67656;52.074;4.758;2023-04-19T06:35:33;102810.16;;;8.56;100.00
78373;BME280;67656;52.074;4.758;2023-04-19T06:40:33;102793.75;;;9.83;100.00
78373;BME280;67656;52.074;4.758;2023-04-19T06:45:33;102794.91;;;10.37;100.00
78373;BME280;67656;52.074;4.758;2023-04-19T06:50:34;102800.38;;;10.91;100.00
78373;BME280;67656;52.074;4.758;2023-04-19T06:55:34;102801.31;;;11.15;100.00
78373;BME280;67656;52.074;4.758;2023-04-19T07:00:37;102795.03;;;12.27;100.00
78373;BME280;67656;52.074;4.758;2023-04-19T07:05:37;102793.38;;;11.69;100.00
78373;BME280;67656;52.074;4.758;2023-04-19T07:10:38;102793.34;;;11.83;100.00
78373;BME280;67656;52.074;4.758;2023-04-19T07:15:38;102787.81;;;12.64;100.00
78373;BME280;67656;52.074;4.758;2023-04-19T07:20:39;102783.56;;;12.25;100.00
78373;BME280;67656;52.074;4.758;2023-04-19T07:25:39;102786.06;;;12.55;100.00
78373;BME280;67656;52.074;4.758;2023-04-19T07:30:40;102781.56;;;12.71;97.59
78373;BME280;67656;52.074;4.758;2023-04-19T07:35:40;102772.94;;;12.32;100.00
78373;BME280;67656;52.074;4.758;2023-04-19T07:40:41;102770.25;;;12.41;96.90
78373;BME280;67656;52.074;4.758;2023-04-19T07:45:41;102779.88;;;12.59;93.50
78373;BME280;67656;52.074;4.758;2023-04-19T07:50:41;102789.59;;;12.55;92.29
78373;BME280;67656;52.074;4.758;2023-04-19T07:55:42;102793.00;;;12.79;97.38
78373;BME280;67656;52.074;4.758;2023-04-19T08:00:42;102774.97;;;13.32;89.34
78373;BME280;67656;52.074;4.758;2023-04-19T08:05:43;102769.34;;;13.68;88.70
78373;BME280;67656;52.074;4.758;2023-04-19T08:10:43;102769.38;;;13.65;84.50
78373;BME280;67656;52.074;4.758;2023-04-19T08:15:43;102756.25;;;13.52;76.08
78373;BME280;67656;52.074;4.758;2023-04-19T08:20:45;102770.19;;;13.73;64.83
78373;BME280;67656;52.074;4.758;2023-04-19T08:25:46;102761.34;;;13.73;64.73
78373;BME280;67656;52.074;4.758;2023-04-19T08:30:46;102769.25;;;13.76;65.21
78373;BME280;67656;52.074;4.758;2023-04-19T08:35:47;102771.69;;;13.97;61.17
78373;BME280;67656;52.074;4.758;2023-04-19T08:40:51;102771.03;;;13.75;61.19
78373;BME280;67656;52.074;4.758;2023-04-19T08:45:52;102768.34;;;13.80;60.52
78373;BME280;67656;52.074;4.758;2023-04-19T08:50:56;102764.06;;;13.65;60.80
78373;BME280;67656;52.074;4.758;2023-04-19T08:55:57;102775.50;;;14.47;59.30
78373;BME280;67656;52.074;4.758;2023-04-19T09:00:59;102769.56;;;14.27;58.02
78373;BME280;67656;52.074;4.758;2023-04-19T09:06:00;102765.31;;;14.12;56.52
78373;BME280;67656;52.074;4.758;2023-04-19T09:11:00;102761.44;;;14.38;57.75
78373;BME280;67656;52.074;4.758;2023-04-19T09:16:02;102759.59;;;14.43;56.95
78373;BME280;67656;52.074;4.758;2023-04-19T09:21:03;102753.81;;;14.13;51.29
78373;BME280;67656;52.074;4.758;2023-04-19T09:26:03;102744.09;;;14.09;51.67
78373;BME280;67656;52.074;4.758;2023-04-19T09:31:10;102756.44;;;14.17;52.34
78373;BME280;67656;52.074;4.758;2023-04-19T09:36:25;102743.84;;;14.29;52.23
78373;BME280;67656;52.074;4.758;2023-04-19T09:41:25;102751.22;;;14.07;51.69
78373;BME280;67656;52.074;4.758;2023-04-19T09:46:34;102746.88;;;14.00;50.37
78373;BME280;67656;52.074;4.758;2023-04-19T09:51:42;102738.91;;;14.00;48.66
78373;BME280;67656;52.074;4.758;2023-04-19T09:56:43;102739.56;;;14.19;48.28
78373;BME280;67656;52.074;4.758;2023-04-19T10:01:45;102739.03;;;14.59;46.71
78373;BME280;67656;52.074;4.758;2023-04-19T10:06:53;102728.09;;;14.81;48.18
78373;BME280;67656;52.074;4.758;2023-04-19T10:11:54;102751.97;;;14.84;45.31
78373;BME280;67656;52.074;4.758;2023-04-19T10:16:55;102747.63;;;14.11;46.04
78373;BME280;67656;52.074;4.758;2023-04-19T10:21:56;102744.09;;;14.09;48.61
78373;BME280;67656;52.074;4.758;2023-04-19T10:27:10;102742.28;;;14.15;46.18
78373;BME280;67656;52.074;4.758;2023-04-19T10:32:14;102727.75;;;14.42;44.69
78373;BME280;67656;52.074;4.758;2023-04-19T10:37:15;102726.34;;;14.13;44.78
78373;BME280;67656;52.074;4.758;2023-04-19T10:42:15;102725.84;;;14.50;46.17
78373;BME280;67656;52.074;4.758;2023-04-19T10:47:44;102723.84;;;14.69;43.72
78373;BME280;67656;52.074;4.758;2023-04-19T10:52:45;102720.81;;;14.32;45.41
78373;BME280;67656;52.074;4.758;2023-04-19T10:58:05;102720.97;;;14.83;45.43
78373;BME280;67656;52.074;4.758;2023-04-19T11:09:00;102712.63;;;14.47;43.37
78373;BME280;67656;52.074;4.758;2023-04-19T11:14:02;102700.91;;;14.62;43.57
78373;BME280;67656;52.074;4.758;2023-04-19T11:19:02;102696.44;;;14.63;42.90
78373;BME280;67656;52.074;4.758;2023-04-19T11:24:12;102701.94;;;15.10;44.09
78373;BME280;67656;52.074;4.758;2023-04-19T11:29:12;102685.84;;;14.61;43.16
78373;BME280;67656;52.074;4.758;2023-04-19T11:34:13;102678.66;;;14.71;43.68
78373;BME280;67656;52.074;4.758;2023-04-19T11:39:13;102672.50;;;15.20;42.29
78373;BME280;67656;52.074;4.758;2023-04-19T11:44:18;102672.59;;;15.16;40.70
78373;BME280;67656;52.074;4.758;2023-04-19T11:49:26;102663.16;;;14.96;39.56
78373;BME280;67656;52.074;4.758;2023-04-19T11:54:27;102669.41;;;14.34;41.15
78373;BME280;67656;52.074;4.758;2023-04-19T11:59:28;102667.03;;;14.14;41.92
78373;BME280;67656;52.074;4.758;2023-04-19T12:04:30;102651.75;;;14.91;41.67
78373;BME280;67656;52.074;4.758;2023-04-19T12:09:34;102652.59;;;15.40;40.16
78373;BME280;67656;52.074;4.758;2023-04-19T12:14:35;102628.03;;;14.79;38.06
78373;BME280;67656;52.074;4.758;2023-04-19T12:19:41;102629.78;;;14.80;37.56
78373;BME280;67656;52.074;4.758;2023-04-19T12:24:42;102615.47;;;14.87;37.06
78373;BME280;67656;52.074;4.758;2023-04-19T12:29:42;102625.63;;;15.15;37.08
78373;BME280;67656;52.074;4.758;2023-04-19T12:34:43;102625.84;;;15.02;34.84
78373;BME280;67656;52.074;4.758;2023-04-19T12:39:43;102630.13;;;15.11;35.82
78373;BME280;67656;52.074;4.758;2023-04-19T12:44:43;102631.56;;;15.28;35.28
78373;BME280;67656;52.074;4.758;2023-04-19T12:49:44;102619.03;;;14.86;35.06
78373;BME280;67656;52.074;4.758;2023-04-19T12:54:44;102608.53;;;15.27;35.32
78373;BME280;67656;52.074;4.758;2023-04-19T12:59:45;102602.03;;;15.42;34.29
78373;BME280;67656;52.074;4.758;2023-04-19T13:04:45;102598.31;;;15.05;34.24
78373;BME280;67656;52.074;4.758;2023-04-19T13:09:45;102594.63;;;15.12;38.97
78373;BME280;67656;52.074;4.758;2023-04-19T13:14:46;102575.56;;;14.88;38.72
78373;BME280;67656;52.074;4.758;2023-04-19T13:19:46;102582.41;;;15.47;37.71
78373;BME280;67656;52.074;4.758;2023-04-19T13:24:46;102565.91;;;14.83;40.06
78373;BME280;67656;52.074;4.758;2023-04-19T13:29:47;102566.59;;;14.94;39.24
78373;BME280;67656;52.074;4.758;2023-04-19T13:34:47;102555.50;;;14.70;39.07
78373;BME280;67656;52.074;4.758;2023-04-19T13:39:48;102557.31;;;15.15;37.55
78373;BME280;67656;52.074;4.758;2023-04-19T13:44:48;102543.78;;;15.28;37.18
78373;BME280;67656;52.074;4.758;2023-04-19T13:49:49;102545.06;;;15.52;38.92
78373;BME280;67656;52.074;4.758;2023-04-19T13:54:49;102538.78;;;15.95;39.89
78373;BME280;67656;52.074;4.758;2023-04-19T13:59:49;102538.03;;;15.48;38.55
78373;BME280;67656;52.074;4.758;2023-04-19T14:04:50;102539.41;;;14.80;40.34
78373;BME280;67656;52.074;4.758;2023-04-19T14:09:50;102525.25;;;15.25;40.14
78373;BME280;67656;52.074;4.758;2023-04-19T14:14:51;102524.22;;;14.86;41.65
78373;BME280;67656;52.074;4.758;2023-04-19T14:20:00;102520.84;;;15.22;37.42
78373;BME280;67656;52.074;4.758;2023-04-19T14:25:02;102515.41;;;15.28;39.18
78373;BME280;67656;52.074;4.758;2023-04-19T14:30:04;102497.06;;;15.16;37.29
78373;BME280;67656;52.074;4.758;2023-04-19T14:35:05;102494.50;;;15.10;37.50
78373;BME280;67656;52.074;4.758;2023-04-19T14:40:06;102480.09;;;15.20;39.44
78373;BME280;67656;52.074;4.758;2023-04-19T14:45:07;102477.44;;;15.22;43.01
78373;BME280;67656;52.074;4.758;2023-04-19T14:50:07;102476.66;;;15.16;43.37
78373;BME280;67656;52.074;4.758;2023-04-19T14:55:08;102464.06;;;14.82;40.95
78373;BME280;67656;52.074;4.758;2023-04-19T15:00:09;102470.63;;;15.07;39.28
78373;BME280;67656;52.074;4.758;2023-04-19T15:05:10;102457.66;;;15.33;41.33
78373;BME280;67656;52.074;4.758;2023-04-19T15:10:10;102460.13;;;15.00;48.14
78373;BME280;67656;52.074;4.758;2023-04-19T15:15:13;102451.97;;;14.63;51.67
78373;BME280;67656;52.074;4.758;2023-04-19T15:20:13;102436.81;;;14.22;51.77
78373;BME280;67656;52.074;4.758;2023-04-19T15:25:13;102422.59;;;14.25;51.69
78373;BME280;67656;52.074;4.758;2023-04-19T15:30:14;102426.09;;;14.76;48.50
78373;BME280;67656;52.074;4.758;2023-04-19T15:35:14;102419.03;;;14.74;44.58
78373;BME280;67656;52.074;4.758;2023-04-19T15:40:14;102420.88;;;14.69;44.35
78373;BME280;67656;52.074;4.758;2023-04-19T15:45:15;102418.34;;;14.63;46.60
78373;BME280;67656;52.074;4.758;2023-04-19T15:50:15;102420.84;;;14.72;42.98
78373;BME280;67656;52.074;4.758;2023-04-19T15:55:16;102419.19;;;14.65;43.53
78373;BME280;67656;52.074;4.758;2023-04-19T16:00:16;102416.09;;;14.41;45.10
78373;BME280;67656;52.074;4.758;2023-04-19T16:05:17;102410.94;;;14.32;46.34
78373;BME280;67656;52.074;4.758;2023-04-19T16:10:18;102415.31;;;14.36;47.85
78373;BME280;67656;52.074;4.758;2023-04-19T16:15:18;102403.81;;;14.34;45.99
78373;BME280;67656;52.074;4.758;2023-04-19T16:20:18;102402.16;;;14.30;47.02
78373;BME280;67656;52.074;4.758;2023-04-19T16:25:19;102417.78;;;14.46;49.25
78373;BME280;67656;52.074;4.758;2023-04-19T16:30:19;102420.81;;;14.25;52.19
78373;BME280;67656;52.074;4.758;2023-04-19T16:35:20;102403.41;;;14.07;49.27
78373;BME280;67656;52.074;4.758;2023-04-19T16:40:20;102408.09;;;13.93;52.95
78373;BME280;67656;52.074;4.758;2023-04-19T16:45:21;102396.69;;;13.88;57.09
78373;BME280;67656;52.074;4.758;2023-04-19T16:50:21;102398.03;;;13.59;61.19
78373;BME280;67656;52.074;4.758;2023-04-19T16:55:22;102405.75;;;13.12;90.29
78373;BME280;67656;52.074;4.758;2023-04-19T17:00:22;102402.94;;;13.26;77.14
78373;BME280;67656;52.074;4.758;2023-04-19T17:05:23;102395.75;;;13.31;72.78
78373;BME280;67656;52.074;4.758;2023-04-19T17:10:24;102399.50;;;12.44;100.00
78373;BME280;67656;52.074;4.758;2023-04-19T17:15:25;102397.22;;;12.07;100.00
78373;BME280;67656;52.074;4.758;2023-04-19T17:20:27;102382.41;;;11.87;100.00
78373;BME280;67656;52.074;4.758;2023-04-19T17:25:27;102382.56;;;11.67;100.00
78373;BME280;67656;52.074;4.758;2023-04-19T17:30:27;102377.47;;;11.39;100.00
78373;BME280;67656;52.074;4.758;2023-04-19T17:35:28;102379.28;;;11.32;100.00
78373;BME280;67656;52.074;4.758;2023-04-19T17:40:28;102381.16;;;11.12;100.00
78373;BME280;67656;52.074;4.758;2023-04-19T17:45:29;102368.91;;;10.95;100.00
78373;BME280;67656;52.074;4.758;2023-04-19T17:50:29;102355.78;;;10.81;100.00
78373;BME280;67656;52.074;4.758;2023-04-19T17:55:29;102375.22;;;10.68;100.00
78373;BME280;67656;52.074;4.758;2023-04-19T18:00:30;102374.34;;;10.55;100.00
78373;BME280;67656;52.074;4.758;2023-04-19T18:05:30;102373.53;;;10.40;100.00
78373;BME280;67656;52.074;4.758;2023-04-19T18:10:31;102376.16;;;10.28;100.00
78373;BME280;67656;52.074;4.758;2023-04-19T18:15:32;102372.69;;;10.13;100.00
78373;BME280;67656;52.074;4.758;2023-04-19T18:20:32;102380.59;;;10.12;100.00
78373;BME280;67656;52.074;4.758;2023-04-19T18:25:32;102381.47;;;10.02;100.00
78373;BME280;67656;52.074;4.758;2023-04-19T18:30:33;102383.25;;;9.98;100.00
78373;BME280;67656;52.074;4.758;2023-04-19T18:35:33;102392.06;;;9.88;100.00
78373;BME280;67656;52.074;4.758;2023-04-19T18:40:34;102402.59;;;9.81;100.00
78373;BME280;67656;52.074;4.758;2023-04-19T18:45:34;102414.91;;;9.64;100.00
78373;BME280;67656;52.074;4.758;2023-04-19T18:50:36;102412.22;;;9.48;100.00
78373;BME280;67656;52.074;4.758;2023-04-19T18:55:36;102429.78;;;9.37;100.00
78373;BME280;67656;52.074;4.758;2023-04-19T19:00:36;102441.16;;;9.24;100.00
78373;BME280;67656;52.074;4.758;2023-04-19T19:05:37;102449.00;;;9.08;100.00
78373;BME280;67656;52.074;4.758;2023-04-19T19:10:37;102448.06;;;9.03;100.00
78373;BME280;67656;52.074;4.758;2023-04-19T19:15:38;102456.84;;;8.99;100.00
78373;BME280;67656;52.074;4.758;2023-04-19T19:20:38;102447.13;;;8.88;100.00
78373;BME280;67656;52.074;4.758;2023-04-19T19:25:39;102458.50;;;8.83;100.00
78373;BME280;67656;52.074;4.758;2023-04-19T19:30:39;102456.72;;;8.71;100.00
78373;BME280;67656;52.074;4.758;2023-04-19T19:35:39;102462.78;;;8.60;100.00
78373;BME280;67656;52.074;4.758;2023-04-19T19:40:40;102458.38;;;8.56;100.00
78373;BME280;67656;52.074;4.758;2023-04-19T19:45:40;102462.72;;;8.50;100.00
78373;BME280;67656;52.074;4.758;2023-04-19T19:50:41;102460.03;;;8.45;100.00
78373;BME280;67656;52.074;4.758;2023-04-19T19:55:41;102459.03;;;8.32;100.00
78373;BME280;67656;52.074;4.758;2023-04-19T20:00:41;102469.53;;;8.24;100.00
78373;BME280;67656;52.074;4.758;2023-04-19T20:05:42;102479.13;;;8.19;100.00
78373;BME280;67656;52.074;4.758;2023-04-19T20:10:42;102472.06;;;8.12;100.00
78373;BME280;67656;52.074;4.758;2023-04-19T20:15:44;102479.00;;;8.07;100.00
78373;BME280;67656;52.074;4.758;2023-04-19T20:20:44;102474.50;;;7.95;100.00
78373;BME280;67656;52.074;4.758;2023-04-19T20:25:45;102490.28;;;7.92;100.00
78373;BME280;67656;52.074;4.758;2023-04-19T20:30:45;102492.88;;;7.90;100.00
78373;BME280;67656;52.074;4.758;2023-04-19T20:35:46;102498.91;;;7.80;100.00
78373;BME280;67656;52.074;4.758;2023-04-19T20:40:46;102501.50;;;7.77;100.00
78373;BME280;67656;52.074;4.758;2023-04-19T20:45:46;102497.06;;;7.68;100.00
78373;BME280;67656;52.074;4.758;2023-04-19T20:50:47;102502.22;;;7.63;100.00
78373;BME280;67656;52.074;4.758;2023-04-19T20:55:49;102501.38;;;7.61;100.00
78373;BME280;67656;52.074;4.758;2023-04-19T21:00:50;102500.50;;;7.64;100.00
78373;BME280;67656;52.074;4.758;2023-04-19T21:05:50;102511.00;;;7.64;100.00
78373;BME280;67656;52.074;4.758;2023-04-19T21:10:51;102508.22;;;7.50;100.00
78373;BME280;67656;52.074;4.758;2023-04-19T21:15:51;102513.34;;;7.39;100.00
78373;BME280;67656;52.074;4.758;2023-04-19T21:20:51;102507.78;;;7.14;100.00
78373;BME280;67656;52.074;4.758;2023-04-19T21:25:52;102505.88;;;7.01;100.00
78373;BME280;67656;52.074;4.758;2023-04-19T21:30:52;102509.25;;;6.94;100.00
78373;BME280;67656;52.074;4.758;2023-04-19T21:35:53;102510.78;;;6.78;100.00
78373;BME280;67656;52.074;4.758;2023-04-19T21:40:53;102513.28;;;6.70;100.00
78373;BME280;67656;52.074;4.758;2023-04-19T21:45:53;102513.22;;;6.64;100.00
78373;BME280;67656;52.074;4.758;2023-04-19T21:50:54;102512.09;;;6.48;100.00
78373;BME280;67656;52.074;4.758;2023-04-19T21:55:54;102511.00;;;6.35;100.00
78373;BME280;67656;52.074;4.758;2023-04-19T22:00:55;102515.19;;;6.25;100.00
78373;BME280;67656;52.074;4.758;2023-04-19T22:05:55;102518.53;;;6.14;100.00
78373;BME280;67656;52.074;4.758;2023-04-19T22:10:55;102516.94;;;6.23;100.00
78373;BME280;67656;52.074;4.758;2023-04-19T22:15:56;102508.31;;;6.30;95.00
78373;BME280;67656;52.074;4.758;2023-04-19T22:20:56;102515.53;;;6.43;87.30
78373;BME280;67656;52.074;4.758;2023-04-19T22:25:56;102515.09;;;6.19;91.68
78373;BME280;67656;52.074;4.758;2023-04-19T22:30:57;102516.41;;;5.95;95.86
78373;BME280;67656;52.074;4.758;2023-04-19T22:35:57;102521.13;;;5.68;99.73
78373;BME280;67656;52.074;4.758;2023-04-19T22:40:58;102514.66;;;5.49;100.00
78373;BME280;67656;52.074;4.758;2023-04-19T22:45:59;102512.00;;;5.46;100.00
78373;BME280;67656;52.074;4.758;2023-04-19T22:51:00;102504.75;;;5.33;100.00
78373;BME280;67656;52.074;4.758;2023-04-19T22:56:00;102501.81;;;5.17;100.00
78373;BME280;67656;52.074;4.758;2023-04-19T23:01:01;102494.81;;;5.18;100.00
78373;BME280;67656;52.074;4.758;2023-04-19T23:06:02;102493.81;;;5.11;100.00
78373;BME280;67656;52.074;4.758;2023-04-19T23:11:02;102480.44;;;4.97;100.00
78373;BME280;67656;52.074;4.758;2023-04-19T23:16:03;102493.88;;;5.14;100.00
78373;BME280;67656;52.074;4.758;2023-04-19T23:21:04;102492.06;;;5.10;100.00
78373;BME280;67656;52.074;4.758;2023-04-19T23:26:04;102486.31;;;4.87;100.00
78373;BME280;67656;52.074;4.758;2023-04-19T23:31:04;102486.22;;;4.82;100.00
78373;BME280;67656;52.074;4.758;2023-04-19T23:36:05;102479.06;;;4.75;100.00
78373;BME280;67656;52.074;4.758;2023-04-19T23:41:09;102474.19;;;4.90;100.00
78373;BME280;67656;52.074;4.758;2023-04-19T23:46:09;102469.09;;;4.97;100.00
78373;BME280;67656;52.074;4.758;2023-04-19T23:51:10;102483.59;;;5.23;100.00
78373;BME280;67656;52.074;4.758;2023-04-19T23:56:10;102465.66;;;5.44;98.85
